Time;durP1;ratioP1;P1;durP2;ratioP2;P2;SDS_P1;SDS_P2;PMS_P1;PMS_P2;Temp;Humidity;BMP_temperature;BMP_pressure;BME280_temperature;BME280_humidity;BME280_pressure;Samples;Min_cycle;Max_cycle;Signal;HPM_P1;HPM_P2
2022/03/21 00:00:36;;;;;;;127.70;48.67;;;;;;;-0.50;100.00;102911.94;5229562;28;20037;-79
2022/03/21 00:03:09;;;;;;;128.88;50.50;;;;;;;-0.53;100.00;102915.53;5218217;28;20056;-79
2022/03/21 00:05:40;;;;;;;148.55;56.80;;;;;;;-0.52;100.00;102912.00;5229176;28;20039;-79
2022/03/21 00:08:12;;;;;;;132.02;50.83;;;;;;;-0.53;100.00;102916.41;5234568;28;20021;-79
2022/03/21 00:10:44;;;;;;;134.95;50.97;;;;;;;-0.55;100.00;102914.72;5235318;28;20028;-79
2022/03/21 00:13:15;;;;;;;130.32;50.58;;;;;;;-0.57;100.00;102919.16;5234059;28;20083;-79
2022/03/21 00:15:47;;;;;;;147.45;52.42;;;;;;;-0.60;100.00;102912.22;5234233;28;20388;-79
2022/03/21 00:18:18;;;;;;;138.18;52.95;;;;;;;-0.60;100.00;102911.38;5234680;28;20037;-80
2022/03/21 00:20:50;;;;;;;127.63;50.03;;;;;;;-0.61;100.00;102909.63;5234504;28;20090;-79
2022/03/21 00:23:22;;;;;;;124.60;49.20;;;;;;;-0.57;100.00;102913.91;5232928;28;20031;-79
2022/03/21 00:25:53;;;;;;;126.63;50.20;;;;;;;-0.53;100.00;102907.63;5232378;28;20472;-79
2022/03/21 00:28:24;;;;;;;141.80;51.30;;;;;;;-0.51;100.00;102913.72;5232431;28;20093;-79
2022/03/21 00:30:55;;;;;;;130.98;50.13;;;;;;;-0.52;100.00;102914.63;5221538;28;20084;-79
2022/03/21 00:33:26;;;;;;;125.35;49.30;;;;;;;-0.59;100.00;102913.09;5232107;28;20408;-77
2022/03/21 00:35:58;;;;;;;134.65;53.55;;;;;;;-0.61;100.00;102909.63;5234438;28;20063;-79
2022/03/21 00:38:28;;;;;;;135.35;51.67;;;;;;;-0.61;100.00;102906.97;5233662;28;20100;-79
2022/03/21 00:40:59;;;;;;;128.35;51.40;;;;;;;-0.63;100.00;102920.22;5232316;28;20050;-79
2022/03/21 00:43:30;;;;;;;120.78;49.22;;;;;;;-0.69;100.00;102916.91;5234194;28;20052;-79
2022/03/21 00:46:01;;;;;;;124.53;49.75;;;;;;;-0.77;100.00;102916.22;5231817;28;20031;-79
2022/03/21 00:48:32;;;;;;;127.68;49.33;;;;;;;-0.81;100.00;102920.72;5234569;28;20388;-79
2022/03/21 00:51:02;;;;;;;127.05;51.05;;;;;;;-0.83;100.00;102917.28;5233721;28;20395;-79
2022/03/21 00:53:32;;;;;;;118.97;47.08;;;;;;;-0.88;100.00;102908.63;5232716;28;20029;-79
2022/03/21 00:56:03;;;;;;;129.90;50.40;;;;;;;-0.89;100.00;102912.19;5232658;28;20059;-79
2022/03/21 00:58:34;;;;;;;140.95;52.40;;;;;;;-0.92;100.00;102913.09;5233312;28;20033;-79
2022/03/21 01:01:05;;;;;;;127.78;48.80;;;;;;;-0.95;100.00;102918.47;5219680;28;20044;-79
2022/03/21 01:03:35;;;;;;;128.73;52.38;;;;;;;-0.97;100.00;102915.00;5218538;28;20021;-79
2022/03/21 01:06:05;;;;;;;142.00;53.10;;;;;;;-0.97;100.00;102919.41;5231799;28;20028;-80
2022/03/21 01:08:36;;;;;;;144.48;55.13;;;;;;;-0.98;100.00;102921.19;5233705;28;20029;-79
2022/03/21 01:11:06;;;;;;;144.32;53.55;;;;;;;-0.96;100.00;102919.38;5233229;28;20025;-79
2022/03/21 01:13:41;;;;;;;140.32;52.10;;;;;;;-0.96;100.00;102922.00;5232319;28;20492;-79
2022/03/21 01:16:13;;;;;;;130.63;50.40;;;;;;;-0.98;100.00;102923.81;5233303;28;20503;-79
2022/03/21 01:18:45;;;;;;;151.27;54.97;;;;;;;-0.96;100.00;102919.38;5232789;28;20025;-79
2022/03/21 01:21:15;;;;;;;143.00;53.50;;;;;;;-0.94;100.00;102919.34;5232983;28;20037;-79
2022/03/21 01:23:46;;;;;;;141.50;53.53;;;;;;;-0.95;100.00;102913.22;5232471;28;20133;-79
2022/03/21 01:26:16;;;;;;;149.93;55.83;;;;;;;-0.91;100.00;102924.50;5231429;28;20031;-79
2022/03/21 01:28:47;;;;;;;135.18;53.15;;;;;;;-0.91;100.00;102914.84;5232297;28;20021;-79
2022/03/21 01:31:17;;;;;;;152.38;55.45;;;;;;;-0.92;100.00;102912.25;5230107;28;20116;-79
2022/03/21 01:33:48;;;;;;;147.30;54.95;;;;;;;-0.96;100.00;102921.13;5229681;28;20025;-79
2022/03/21 01:36:18;;;;;;;130.98;52.85;;;;;;;-1.00;100.00;102920.38;5230325;28;20031;-79
2022/03/21 01:38:49;;;;;;;138.48;50.90;;;;;;;-1.02;100.00;102922.16;5230002;28;20389;-79
2022/03/21 01:41:19;;;;;;;145.90;55.17;;;;;;;-1.03;100.00;102922.22;5229339;28;20033;-78
2022/03/21 01:44:09;;;;;;;144.85;54.28;;;;;;;-1.07;100.00;102924.91;5237183;28;20025;-78
2022/03/21 01:46:41;;;;;;;120.78;48.30;;;;;;;-1.13;100.00;102919.81;5233814;28;20032;-78
2022/03/21 01:49:11;;;;;;;149.00;54.70;;;;;;;-1.16;100.00;102924.28;5232543;28;20054;-78
2022/03/21 01:51:43;;;;;;;144.68;53.17;;;;;;;-1.20;100.00;102918.28;5233860;28;20044;-78
2022/03/21 01:57:03;;;;;;;128.32;50.80;;;;;;;-1.08;100.00;102927.59;5233853;28;20028;-79
2022/03/21 01:59:34;;;;;;;132.93;49.60;;;;;;;-1.00;100.00;102920.38;5231120;28;20043;-78
2022/03/21 02:02:06;;;;;;;140.05;52.85;;;;;;;-1.02;100.00;102924.81;5214331;28;20023;-78
2022/03/21 02:04:37;;;;;;;146.18;55.70;;;;;;;-1.05;100.00;102924.91;5221643;28;20089;-79
2022/03/21 02:07:08;;;;;;;149.90;55.30;;;;;;;-1.08;100.00;102922.34;5228579;28;20128;-79
2022/03/21 02:09:59;;;;;;;146.45;55.60;;;;;;;-1.09;100.00;102928.53;5228624;28;20049;-79
2022/03/21 02:12:49;;;;;;;132.50;50.13;;;;;;;-1.16;100.00;102927.78;5228572;28;20040;-79
2022/03/21 02:15:36;;;;;;;133.82;51.50;;;;;;;-1.23;100.00;102920.09;5229156;28;20025;-79
2022/03/21 02:18:23;;;;;;;140.65;51.72;;;;;;;-1.26;100.00;102925.44;5228867;28;20021;-78
2022/03/21 02:20:56;;;;;;;144.73;52.88;;;;;;;-1.29;100.00;102925.53;5232430;28;20021;-77
2022/03/21 02:23:41;;;;;;;152.95;55.60;;;;;;;-1.28;100.00;102919.38;5232139;28;20017;-77
2022/03/21 02:26:13;;;;;;;142.32;51.47;;;;;;;-1.31;100.00;102923.81;5231073;28;20037;-78
2022/03/21 02:28:46;;;;;;;136.68;51.90;;;;;;;-1.31;100.00;102915.91;5232840;28;20052;-77
2022/03/21 02:31:17;;;;;;;145.68;53.08;;;;;;;-1.24;100.00;102918.38;5218442;28;20044;-78
2022/03/21 02:33:48;;;;;;;140.13;52.08;;;;;;;-1.20;100.00;102925.31;5232087;28;20171;-78
2022/03/21 02:36:20;;;;;;;142.50;51.58;;;;;;;-1.17;100.00;102919.94;5231798;28;20052;-78
2022/03/21 02:38:51;;;;;;;137.90;53.45;;;;;;;-1.20;100.00;102922.69;5230969;28;20028;-78
2022/03/21 02:41:21;;;;;;;148.63;53.90;;;;;;;-1.24;100.00;102921.88;5231926;28;20032;-78
2022/03/21 02:43:56;;;;;;;141.15;53.05;;;;;;;-1.27;100.00;102921.09;5231227;28;20084;-77
2022/03/21 02:46:26;;;;;;;150.15;56.63;;;;;;;-1.31;100.00;102915.91;5230375;28;20090;-77
2022/03/21 02:48:58;;;;;;;148.00;54.13;;;;;;;-1.35;100.00;102916.91;5231870;28;20107;-77
2022/03/21 02:51:31;;;;;;;162.65;57.33;;;;;;;-1.35;100.00;102926.56;5232156;28;20025;-78
2022/03/21 02:54:02;;;;;;;141.70;52.05;;;;;;;-1.37;100.00;102937.13;5231409;28;20056;-78
2022/03/21 02:56:34;;;;;;;157.75;55.38;;;;;;;-1.42;100.00;102931.09;5229588;28;20025;-77
2022/03/21 02:59:04;;;;;;;139.30;51.97;;;;;;;-1.45;100.00;102931.19;5232077;28;20029;-78
2022/03/21 03:01:35;;;;;;;153.65;53.67;;;;;;;-1.47;100.00;102927.72;5212063;28;20048;-77
2022/03/21 03:04:10;;;;;;;159.77;57.85;;;;;;;-1.49;100.00;102923.41;5219441;28;20032;-77
2022/03/21 03:06:41;;;;;;;148.82;55.30;;;;;;;-1.50;100.00;102924.31;5229536;28;20036;-78
2022/03/21 03:09:11;;;;;;;144.80;53.30;;;;;;;-1.53;100.00;102927.88;5230058;28;20108;-77
2022/03/21 03:11:42;;;;;;;142.60;51.88;;;;;;;-1.53;100.00;102922.59;5230444;28;20017;-77
2022/03/21 03:14:13;;;;;;;134.70;51.95;;;;;;;-1.49;100.00;102929.53;5229205;28;20435;-78
2022/03/21 03:16:43;;;;;;;150.30;54.95;;;;;;;-1.43;100.00;102926.75;5229549;28;20055;-77
2022/03/21 03:19:14;;;;;;;157.55;53.92;;;;;;;-1.40;100.00;102931.94;5231545;28;20019;-77
2022/03/21 03:21:47;;;;;;;146.35;52.88;;;;;;;-1.40;100.00;102937.22;5232361;28;20025;-77
2022/03/21 03:24:21;;;;;;;151.70;55.35;;;;;;;-1.39;100.00;102938.06;5231862;28;20027;-77
2022/03/21 03:26:52;;;;;;;145.87;52.50;;;;;;;-1.45;100.00;102936.47;5231926;28;20051;-77
2022/03/21 03:29:22;;;;;;;149.68;54.78;;;;;;;-1.49;100.00;102926.91;5235543;28;20155;-77
2022/03/21 03:31:53;;;;;;;134.60;51.67;;;;;;;-1.51;100.00;102927.81;5232795;28;20418;-78
2022/03/21 03:34:24;;;;;;;154.75;57.83;;;;;;;-1.50;100.00;102926.94;5235238;28;20055;-77
2022/03/21 03:36:54;;;;;;;148.57;53.90;;;;;;;-1.53;100.00;102930.50;5234142;28;20025;-77
2022/03/21 03:39:25;;;;;;;136.80;52.55;;;;;;;-1.53;100.00;102935.78;5233750;28;20043;-82
2022/03/21 03:41:56;;;;;;;152.80;55.20;;;;;;;-1.54;100.00;102939.31;5236653;28;20049;-77
2022/03/21 03:44:27;;;;;;;163.68;58.70;;;;;;;-1.53;100.00;102945.44;5236263;28;20025;-78
2022/03/21 03:46:57;;;;;;;184.65;70.63;;;;;;;-1.52;100.00;102940.13;5235361;28;20366;-79
2022/03/21 03:49:28;;;;;;;152.63;56.97;;;;;;;-1.50;100.00;102940.13;5235073;28;20037;-80
2022/03/21 03:51:58;;;;;;;177.02;59.15;;;;;;;-1.48;100.00;102947.06;5235401;28;20055;-79
2022/03/21 03:54:29;;;;;;;143.25;56.72;;;;;;;-1.48;100.00;102946.19;5234148;28;20108;-79
2022/03/21 03:56:59;;;;;;;156.20;57.08;;;;;;;-1.48;100.00;102944.41;5234498;28;20031;-79
2022/03/21 03:59:30;;;;;;;145.23;52.88;;;;;;;-1.46;100.00;102954.91;5235187;28;20358;-79
2022/03/21 04:02:00;;;;;;;150.18;53.40;;;;;;;-1.43;100.00;102947.81;5203750;28;20048;-79
2022/03/21 04:04:31;;;;;;;136.60;51.28;;;;;;;-1.45;100.00;102941.72;5226277;28;20024;-79
2022/03/21 04:07:01;;;;;;;139.13;50.08;;;;;;;-1.44;100.00;102948.72;5234073;28;20047;-79
2022/03/21 04:09:32;;;;;;;135.05;52.72;;;;;;;-1.44;100.00;102946.09;5233300;28;20033;-79
2022/03/21 04:12:03;;;;;;;133.43;51.42;;;;;;;-1.44;100.00;102948.72;5232464;28;20071;-79
2022/03/21 04:14:33;;;;;;;143.88;53.40;;;;;;;-1.43;100.00;102944.31;5232780;28;20021;-79
2022/03/21 04:17:04;;;;;;;142.82;52.60;;;;;;;-1.43;100.00;102952.22;5234052;28;20070;-79
2022/03/21 04:19:34;;;;;;;140.85;52.65;;;;;;;-1.47;100.00;102961.94;5232298;28;20024;-79
2022/03/21 04:22:05;;;;;;;146.82;52.13;;;;;;;-1.47;100.00;102958.44;5233931;28;20031;-79
2022/03/21 04:24:35;;;;;;;140.70;52.42;;;;;;;-1.53;100.00;102959.47;5233413;28;20029;-79
2022/03/21 04:27:06;;;;;;;136.23;53.28;;;;;;;-1.58;100.00;102958.72;5234032;28;20359;-79
2022/03/21 04:29:36;;;;;;;149.23;52.38;;;;;;;-1.61;100.00;102957.03;5231532;28;20494;-79
2022/03/21 04:32:07;;;;;;;136.27;49.58;;;;;;;-1.62;100.00;102955.28;5233811;28;20028;-79
2022/03/21 04:34:37;;;;;;;139.13;50.92;;;;;;;-1.58;100.00;102951.69;5232455;28;20032;-79
2022/03/21 04:37:08;;;;;;;136.40;50.10;;;;;;;-1.52;100.00;102952.44;5232834;28;20025;-79
2022/03/21 04:39:38;;;;;;;149.45;55.47;;;;;;;-1.53;100.00;102953.34;5233488;28;20039;-79
2022/03/21 04:42:09;;;;;;;142.30;49.63;;;;;;;-1.55;100.00;102953.38;5232600;28;20431;-79
2022/03/21 04:44:39;;;;;;;141.32;53.42;;;;;;;-1.55;100.00;102956.00;5233455;28;20055;-79
2022/03/21 04:47:11;;;;;;;139.70;51.78;;;;;;;-1.60;100.00;102958.75;5229205;28;20028;-79
2022/03/21 04:49:41;;;;;;;143.57;54.70;;;;;;;-1.63;100.00;102958.81;5229005;28;20040;-79
2022/03/21 04:52:12;;;;;;;145.93;51.28;;;;;;;-1.69;100.00;102961.59;5227864;28;20033;-79
2022/03/21 04:54:43;;;;;;;146.02;52.03;;;;;;;-1.74;100.00;102963.47;5227049;28;20029;-79
2022/03/21 04:57:13;;;;;;;137.68;51.53;;;;;;;-1.77;100.00;102975.81;5228798;28;20112;-79
2022/03/21 04:59:44;;;;;;;143.88;51.88;;;;;;;-1.82;100.00;102968.03;5228926;28;20053;-79
2022/03/21 05:02:15;;;;;;;140.15;51.28;;;;;;;-1.83;100.00;102967.16;5214474;28;20029;-79
2022/03/21 05:04:45;;;;;;;153.50;55.15;;;;;;;-1.84;100.00;102973.34;5224476;28;20057;-79
2022/03/21 05:07:16;;;;;;;164.63;55.95;;;;;;;-1.86;100.00;102967.25;5232225;28;20436;-79
2022/03/21 05:09:48;;;;;;;154.40;55.15;;;;;;;-1.83;100.00;102976.84;5233073;28;20059;-79
2022/03/21 05:12:20;;;;;;;140.93;53.10;;;;;;;-1.85;100.00;102973.38;5231861;28;20028;-79
2022/03/21 05:14:50;;;;;;;158.55;55.33;;;;;;;-1.85;100.00;102970.75;5231229;28;20032;-79
2022/03/21 05:17:21;;;;;;;147.43;54.08;;;;;;;-1.88;100.00;102974.31;5232552;28;20025;-80
2022/03/21 05:19:52;;;;;;;158.85;55.10;;;;;;;-1.87;100.00;102981.28;5235692;28;20042;-79
2022/03/21 05:22:22;;;;;;;147.68;54.20;;;;;;;-1.89;100.00;102975.22;5232684;28;20024;-79
2022/03/21 05:36:08;;;;;;;134.00;49.28;;;;;;;-1.64;100.00;102980.78;5233139;28;20813;-79
2022/03/21 05:38:38;;;;;;;143.60;54.15;;;;;;;-1.63;100.00;102984.28;5231635;28;20029;-79
2022/03/21 05:41:10;;;;;;;138.05;51.22;;;;;;;-1.65;100.00;102984.31;5229745;28;20479;-79
2022/03/21 05:43:40;;;;;;;136.98;51.85;;;;;;;-1.67;100.00;102988.72;5231830;28;20021;-79
2022/03/21 05:46:10;;;;;;;140.02;50.00;;;;;;;-1.66;100.00;102989.59;5231815;28;20040;-79
2022/03/21 05:48:51;;;;;;;146.85;50.30;;;;;;;-1.69;100.00;102985.28;5230354;28;20104;-79
2022/03/21 05:51:24;;;;;;;137.40;52.15;;;;;;;-1.73;100.00;102986.25;5231363;28;20032;-79
2022/03/21 05:53:56;;;;;;;138.45;50.33;;;;;;;-1.77;100.00;102984.59;5230481;28;20115;-79
2022/03/21 05:56:28;;;;;;;138.90;49.08;;;;;;;-1.78;100.00;102985.50;5230245;28;20021;-79
2022/03/21 06:00:20;;;;;;;158.57;53.35;;;;;;;-1.73;100.00;102994.16;5230264;28;20017;-79
2022/03/21 06:01:51;;;;;;;134.68;49.30;;;;;;;-1.70;100.00;102996.72;5210455;28;20029;-79
2022/03/21 06:04:23;;;;;;;140.48;53.35;;;;;;;-1.67;100.00;103001.03;5222355;28;20031;-79
2022/03/21 06:06:53;;;;;;;150.68;55.08;;;;;;;-1.67;100.00;103001.03;5229142;28;20021;-80
2022/03/21 06:09:24;;;;;;;144.07;51.30;;;;;;;-1.66;100.00;102995.72;5231624;28;20032;-79
2022/03/21 06:11:55;;;;;;;152.05;51.03;;;;;;;-1.61;100.00;102995.63;5230729;28;20029;-80
2022/03/21 06:14:26;;;;;;;145.07;50.90;;;;;;;-1.52;100.00;102998.03;5229205;28;20033;-78
2022/03/21 06:16:56;;;;;;;147.60;51.67;;;;;;;-1.34;100.00;102999.38;5231512;28;20074;-79
2022/03/21 06:19:27;;;;;;;149.15;53.30;;;;;;;-1.15;100.00;103002.44;5230360;28;20041;-79
2022/03/21 06:21:57;;;;;;;146.32;51.17;;;;;;;-0.91;100.00;103016.75;5225456;28;20114;-77
2022/03/21 06:24:28;;;;;;;130.57;49.97;;;;;;;-0.70;100.00;103017.94;5225126;28;20039;-76
2022/03/21 06:26:58;;;;;;;106.10;44.28;;;;;;;-0.60;100.00;103036.13;5228454;28;20103;-79
2022/03/21 06:29:29;;;;;;;113.60;45.72;;;;;;;-0.43;100.00;103030.41;5229450;28;20103;-77
2022/03/21 06:31:59;;;;;;;112.90;44.13;;;;;;;-0.20;100.00;103034.16;5227668;28;20031;-76
2022/03/21 06:34:30;;;;;;;105.40;43.13;;;;;;;0.13;100.00;103032.31;5225092;28;20051;-75
2022/03/21 06:37:02;;;;;;;109.72;44.65;;;;;;;0.48;100.00;103032.09;5225278;28;20048;-75
2022/03/21 06:39:32;;;;;;;111.43;44.80;;;;;;;0.93;100.00;103033.34;5225244;28;20166;-76
2022/03/21 06:42:03;;;;;;;102.20;43.63;;;;;;;1.33;100.00;103039.91;5226595;28;20111;-76
2022/03/21 06:44:33;;;;;;;95.30;43.25;;;;;;;1.70;100.00;103040.31;5225148;28;20171;-77
2022/03/21 06:47:04;;;;;;;93.68;42.35;;;;;;;2.15;100.00;103036.91;5227263;28;20063;-77
2022/03/21 06:49:35;;;;;;;93.38;40.17;;;;;;;2.74;100.00;103035.47;5229695;28;20060;-78
2022/03/21 06:52:08;;;;;;;88.43;39.45;;;;;;;3.06;100.00;103031.50;5228387;28;20025;-78
2022/03/21 06:54:38;;;;;;;86.10;38.17;;;;;;;3.15;100.00;103033.75;5224666;28;20035;-75
2022/03/21 06:57:10;;;;;;;86.80;39.53;;;;;;;3.49;100.00;103033.19;5225042;28;20025;-75
2022/03/21 06:59:41;;;;;;;79.13;37.97;;;;;;;3.89;100.00;103034.06;5227373;28;20025;-83
2022/03/21 07:02:12;;;;;;;80.55;38.42;;;;;;;4.22;100.00;103042.28;5208994;28;20060;-76
2022/03/21 07:04:43;;;;;;;77.70;38.03;;;;;;;4.49;100.00;103031.28;5216831;28;20040;-76
2022/03/21 07:07:13;;;;;;;73.72;37.25;;;;;;;5.02;100.00;103028.66;5224860;28;20174;-76
2022/03/21 07:09:43;;;;;;;71.82;35.50;;;;;;;5.35;100.00;103031.38;5224773;28;20107;-76
2022/03/21 07:12:14;;;;;;;68.20;35.05;;;;;;;5.51;100.00;103031.44;5224553;28;20104;-76
2022/03/21 07:14:46;;;;;;;72.25;36.47;;;;;;;5.74;100.00;103032.03;5224036;28;20044;-76
2022/03/21 07:17:19;;;;;;;73.32;34.55;;;;;;;5.78;100.00;103039.78;5211749;28;20757;-77
2022/03/21 07:19:50;;;;;;;72.53;35.92;;;;;;;5.74;100.00;103024.06;5204664;28;20021;-76
2022/03/21 07:22:21;;;;;;;73.10;36.67;;;;;;;5.90;100.00;103025.81;5223308;28;20395;-76
2022/03/21 07:24:54;;;;;;;67.75;35.72;;;;;;;6.09;100.00;103035.50;5222839;28;20048;-75
2022/03/21 07:27:25;;;;;;;67.70;35.60;;;;;;;6.42;100.00;103030.09;5223237;28;20508;-76
2022/03/21 07:29:55;;;;;;;64.55;33.72;;;;;;;6.88;100.00;103040.84;5219743;28;20030;-76
2022/03/21 07:32:25;;;;;;;61.15;34.08;;;;;;;7.19;100.00;103042.56;5213235;28;20484;-77
2022/03/21 07:34:56;;;;;;;59.35;31.83;;;;;;;7.53;100.00;103039.59;5222559;28;20488;-76
2022/03/21 07:37:26;;;;;;;56.60;32.17;;;;;;;7.67;100.00;103041.41;5222971;28;20063;-76
2022/03/21 07:39:57;;;;;;;67.28;32.97;;;;;;;7.89;100.00;103040.09;5223161;28;20033;-77
2022/03/21 07:42:28;;;;;;;63.85;32.55;;;;;;;8.12;100.00;103042.19;5225267;28;20021;-76
2022/03/21 07:47:47;;;;;;;55.47;30.77;;;;;;;8.70;100.00;103042.97;5228571;28;20094;-77
2022/03/21 07:50:19;;;;;;;56.70;30.92;;;;;;;9.06;100.00;103042.34;5223046;28;20024;-77
2022/03/21 07:52:51;;;;;;;56.25;30.52;;;;;;;9.24;100.00;103045.63;5223254;28;20037;-77
2022/03/21 07:55:22;;;;;;;55.90;29.20;;;;;;;9.38;100.00;103047.31;5224974;28;20480;-76
2022/03/21 07:57:52;;;;;;;56.40;29.35;;;;;;;9.36;100.00;103050.13;5223968;28;20029;-76
2022/03/21 08:00:23;;;;;;;51.83;28.23;;;;;;;8.99;100.00;103044.56;5214419;28;20021;-77
2022/03/21 08:02:54;;;;;;;54.47;28.33;;;;;;;8.81;100.00;103043.97;5208516;28;20096;-77
2022/03/21 08:05:26;;;;;;;54.42;28.52;;;;;;;9.19;100.00;103047.75;5220194;28;20029;-77
2022/03/21 08:07:57;;;;;;;57.65;30.08;;;;;;;9.39;100.00;103055.28;5227748;28;20025;-80
2022/03/21 08:10:29;;;;;;;51.17;28.75;;;;;;;9.23;100.00;103054.59;5231385;28;20041;-79
2022/03/21 08:12:59;;;;;;;52.47;29.23;;;;;;;9.13;100.00;103053.47;5234037;28;20017;-79
2022/03/21 08:15:30;;;;;;;57.35;28.88;;;;;;;9.22;100.00;103050.19;5234491;28;20047;-78
2022/03/21 08:18:01;;;;;;;61.28;30.73;;;;;;;8.91;100.00;103054.94;5235221;28;20020;-77
2022/03/21 08:20:35;;;;;;;62.10;31.02;;;;;;;9.29;100.00;103056.88;5234328;28;20044;-79
2022/03/21 08:23:08;;;;;;;51.08;27.83;;;;;;;9.60;100.00;103055.63;5233203;28;20020;-78
2022/03/21 08:25:41;;;;;;;51.58;29.70;;;;;;;9.98;100.00;103052.91;5232414;28;20051;-78
2022/03/21 08:28:12;;;;;;;58.33;32.50;;;;;;;10.09;100.00;103046.78;5232569;28;20033;-82
2022/03/21 08:30:43;;;;;;;56.22;29.67;;;;;;;10.52;100.00;103049.09;5232523;28;20021;-81
2022/03/21 08:33:13;;;;;;;47.22;26.67;;;;;;;10.97;100.00;103042.13;5233483;28;20057;-79
2022/03/21 08:35:44;;;;;;;55.00;28.20;;;;;;;11.34;100.00;103052.75;5232766;28;20050;-78
2022/03/21 08:38:14;;;;;;;44.22;26.58;;;;;;;11.38;100.00;103047.03;5232880;28;21147;-78
2022/03/21 08:40:45;;;;;;;46.83;26.80;;;;;;;11.62;100.00;103052.34;5233521;28;20029;-79
2022/03/21 08:43:15;;;;;;;46.60;25.65;;;;;;;11.98;100.00;103038.84;5234015;28;20036;-78
2022/03/21 08:45:47;;;;;;;45.38;26.38;;;;;;;12.16;100.00;103043.63;5235221;28;20052;-78
2022/03/21 08:48:18;;;;;;;47.17;24.50;;;;;;;12.11;100.00;103044.97;5231451;28;20033;-83
2022/03/21 08:50:49;;;;;;;43.78;24.60;;;;;;;12.47;100.00;103037.59;5231761;28;20035;-87
2022/03/21 08:53:19;;;;;;;41.60;22.90;;;;;;;12.83;100.00;103039.06;5231995;28;20115;-78
2022/03/21 08:55:49;;;;;;;40.17;22.10;;;;;;;13.35;100.00;103038.25;5233306;28;20033;-79
2022/03/21 08:58:20;;;;;;;37.65;21.90;;;;;;;13.69;100.00;103036.19;5232812;28;20071;-78
2022/03/21 09:00:51;;;;;;;36.35;21.75;;;;;;;13.93;100.00;103033.19;5220844;28;20579;-79
2022/03/21 09:03:21;;;;;;;38.88;19.67;;;;;;;14.15;100.00;103037.53;5216837;28;20389;-78
2022/03/21 09:05:54;;;;;;;40.25;19.67;;;;;;;13.94;100.00;103029.50;5230370;28;20036;-79
2022/03/21 09:08:24;;;;;;;32.78;19.23;;;;;;;13.98;100.00;103030.09;5233111;28;20033;-79
2022/03/21 09:10:55;;;;;;;34.30;18.92;;;;;;;14.15;100.00;103028.59;5231364;28;20048;-79
2022/03/21 09:13:25;;;;;;;35.30;19.60;;;;;;;14.04;100.00;103031.38;5231187;28;20634;-79
2022/03/21 09:15:56;;;;;;;35.08;17.50;;;;;;;14.36;100.00;103032.09;5229106;28;20021;-78
2022/03/21 09:18:26;;;;;;;33.85;18.40;;;;;;;13.74;100.00;103033.94;5227922;28;20024;-78
2022/03/21 09:20:57;;;;;;;32.97;18.25;;;;;;;13.92;100.00;103039.59;5209305;28;20057;-79
2022/03/21 09:23:27;;;;;;;31.00;18.45;;;;;;;13.83;100.00;103042.25;5213337;28;20052;-79
2022/03/21 09:25:58;;;;;;;31.55;17.38;;;;;;;13.88;100.00;103040.00;5228513;28;20049;-78
2022/03/21 09:28:29;;;;;;;32.63;17.38;;;;;;;14.09;100.00;103026.44;5228311;28;20127;-79
2022/03/21 09:31:00;;;;;;;38.47;17.02;;;;;;;14.66;100.00;103027.59;5236503;28;20116;-77
2022/03/21 09:33:30;;;;;;;32.50;16.25;;;;;;;14.45;100.00;103028.53;5249120;28;20117;-77
2022/03/21 09:36:00;;;;;;;28.65;15.48;;;;;;;14.63;100.00;103026.03;5247881;28;20040;-78
2022/03/21 09:38:31;;;;;;;31.48;15.98;;;;;;;14.94;100.00;103029.47;5240721;28;20503;-79
2022/03/21 09:41:03;;;;;;;28.85;15.95;;;;;;;14.97;100.00;103028.34;5229913;28;20029;-78
2022/03/21 09:43:37;;;;;;;31.27;16.33;;;;;;;14.85;100.00;103021.38;5225309;28;20028;-79
2022/03/21 09:46:08;;;;;;;31.13;15.48;;;;;;;14.93;100.00;103014.25;5224569;28;20427;-78
2022/03/21 09:48:39;;;;;;;38.58;16.80;;;;;;;15.41;100.00;103024.19;5226507;28;20036;-77
2022/03/21 09:51:10;;;;;;;35.30;16.77;;;;;;;15.59;100.00;103015.31;5225707;28;20618;-78
2022/03/21 09:53:40;;;;;;;28.63;15.55;;;;;;;15.50;100.00;103014.31;5226363;28;20108;-78
2022/03/21 09:56:11;;;;;;;26.90;15.43;;;;;;;15.98;100.00;103024.19;5224226;28;20037;-78
2022/03/21 09:58:42;;;;;;;30.58;15.85;;;;;;;15.60;100.00;103022.41;5225512;28;20171;-78
2022/03/21 10:01:13;;;;;;;29.60;16.33;;;;;;;15.57;100.00;103020.88;5210439;28;20508;-77
2022/03/21 10:03:44;;;;;;;28.33;16.48;;;;;;;15.88;100.00;103013.41;5211340;28;20026;-79
2022/03/21 10:06:44;;;;;;;29.20;15.05;;;;;;;15.99;100.00;103009.66;5224321;28;20029;-78
2022/03/21 10:09:17;;;;;;;30.30;15.38;;;;;;;16.36;100.00;103011.44;5225397;28;20036;-79
2022/03/21 10:12:08;;;;;;;32.47;15.73;;;;;;;16.30;100.00;103007.47;5224708;28;20021;-78
2022/03/21 10:14:38;;;;;;;31.42;15.93;;;;;;;16.11;100.00;103008.44;5224954;28;20029;-78
2022/03/21 10:17:12;;;;;;;28.67;15.20;;;;;;;15.75;100.00;103004.75;5227522;28;20074;-78
2022/03/21 10:19:45;;;;;;;29.20;15.73;;;;;;;15.64;100.00;103010.34;5226694;28;20025;-78
2022/03/21 10:22:19;;;;;;;31.58;15.68;;;;;;;15.94;100.00;103001.97;5224803;28;20071;-78
2022/03/21 10:24:52;;;;;;;28.33;15.38;;;;;;;16.12;100.00;102993.91;5235077;28;20057;-78
2022/03/21 10:27:43;;;;;;;32.05;16.08;;;;;;;16.57;100.00;102993.91;5230302;28;20021;-78
2022/03/21 10:30:21;;;;;;;31.52;15.43;;;;;;;16.58;100.00;102997.47;5226929;28;20032;-78
2022/03/21 10:32:53;;;;;;;29.60;16.13;;;;;;;16.34;100.00;102991.78;5229761;28;20481;-80
2022/03/21 10:35:28;;;;;;;29.30;16.73;;;;;;;16.37;100.00;102997.75;5230733;28;20083;-81
2022/03/21 10:38:02;;;;;;;33.22;16.95;;;;;;;16.41;100.00;102987.44;5216294;28;20036;-81
2022/03/21 10:40:45;;;;;;;32.28;16.58;;;;;;;16.29;100.00;102994.94;5207598;28;20032;-81
2022/03/21 10:43:18;;;;;;;30.05;15.85;;;;;;;16.09;100.00;102986.06;5207074;28;20035;-81
2022/03/21 10:45:51;;;;;;;27.65;15.85;;;;;;;15.96;100.00;102990.97;5207404;28;20113;-81
2022/03/21 10:48:43;;;;;;;26.92;15.82;;;;;;;16.31;100.00;102977.56;5227028;28;20033;-81
2022/03/21 10:51:13;;;;;;;33.53;15.68;;;;;;;16.28;100.00;102985.13;5210159;28;20031;-81
2022/03/21 10:53:44;;;;;;;32.10;15.68;;;;;;;16.29;100.00;102984.13;5209961;28;20032;-81
2022/03/21 10:56:14;;;;;;;33.35;16.08;;;;;;;16.31;100.00;102982.09;5226126;28;20029;-81
2022/03/21 10:58:47;;;;;;;30.50;15.73;;;;;;;16.61;100.00;102974.63;5228000;28;20104;-81
2022/03/21 11:01:20;;;;;;;34.35;16.42;;;;;;;16.74;100.00;102970.56;5186691;28;20469;-81
2022/03/21 11:03:56;;;;;;;29.48;14.80;;;;;;;16.95;100.00;102972.09;5185746;28;20034;-81
2022/03/21 11:06:27;;;;;;;28.00;13.65;;;;;;;17.20;96.58;102971.25;5185201;28;20547;-81
2022/03/21 11:09:00;;;;;;;28.98;14.32;;;;;;;16.84;100.00;102970.47;5186285;28;20034;-81
2022/03/21 11:11:33;;;;;;;25.25;14.65;;;;;;;16.96;100.00;102974.63;5196991;28;20045;-81
2022/03/21 11:14:04;;;;;;;26.38;14.75;;;;;;;17.20;100.00;102967.69;5205917;28;20152;-81
2022/03/21 11:16:37;;;;;;;29.00;15.80;;;;;;;17.21;100.00;102969.41;5207053;28;20076;-81
2022/03/21 11:19:08;;;;;;;31.63;15.50;;;;;;;17.40;97.00;102968.34;5226015;28;20071;-81
2022/03/21 11:21:39;;;;;;;32.08;15.90;;;;;;;17.55;91.86;102966.75;5227250;28;20025;-81
2022/03/21 11:24:12;;;;;;;27.73;15.25;;;;;;;17.66;98.02;102958.31;5225222;28;20491;-81
2022/03/21 11:27:20;;;;;;;26.42;14.88;;;;;;;17.67;91.63;102954.59;5222896;28;20416;-81
2022/03/21 11:30:15;;;;;;;29.65;14.52;;;;;;;17.53;91.22;102957.91;5221276;28;20033;-81
2022/03/21 11:32:58;;;;;;;25.85;14.93;;;;;;;17.55;94.25;102964.03;5226185;28;20040;-81
2022/03/21 11:35:30;;;;;;;31.95;15.07;;;;;;;17.68;98.42;102963.59;5202552;28;20486;-81
2022/03/21 11:38:21;;;;;;;28.52;14.23;;;;;;;17.72;90.01;102952.25;5225662;28;20132;-81